Baltimore, Maryland
Traffic Map
Current Weather Conditions
Baltimore, Maryland
Broken Clouds Haze
Broken Clouds
23°
Feels Like: 23°
Wind Chill: 23° Ceiling: 14000
Heat Index: 23° Visibility: 3mi
Dew Point: 22° Wind: 0mph
Humidity: 96% Direction: ° ()
Pressure: 30.03in Gusts: 0mph
Raw Report DataKBWI 011054Z 00000KT 3SM BR FEW010 SCT065 BKN140 BKN180 23/22 A3003 RMK AO2 RAB20E35 SLP167 P0000 T02280222 $
Traffic Incident Summary
Active as of:
Severity:
Category:
InformationThere was an issue retrieving the traffic information for this location. Please try a different location or try again shortly.
Advertisements
Track Severe Weather on mobile